logo
Rechercher aéroport 
image banner adimage banner adimage banner ad
image banner ad

KRUT - Rutland/Southern Vermont Rgnl

Situé à Rutland, United States

ICAO - RUT, IATA - RUT

Données fournies par Airmate  

Information générale

Coordonnées: N43°31'47" W72°56'59"
Élévation : 787 feet MSL.
Variation magnétique : -15° East
Voir autres Aéroports à Vermont

Données opérationnelles

Special qualification required
Heure actuelle UTC:
Heure actuelle locale:
Météo
METAR: KRUT 240556Z AUTO 13004KT 10SM CLR 11/09 A2984 RMK AO2 SLP098 T01110089 10222 20111 58005 $
TAF: KRUT 240531Z 2406/2506 13004KT P6SM SKC FM241300 25006KT P6SM FEW250 FM241500 28015G24KT P6SM FEW210 FM242300 31007KT P6SM FEW220
Voir NOTAMs / SUP AIP / TFR affectant cet aéroport [VIEW]
Fréquences de communication: [VIEW]

Pistes:

Identifiant RWYQFULongueur (ft)Largeur (ft)SurfaceLDA (ft)
01359°5304100ASPH5003
19179°5304100ASPH5003
13119°316975ASPH
31299°316975ASPH

Coordonnées de l'aéroport

Adresse: Rutland United States

Vue satellite de KRUT